Time;durP1;ratioP1;P1;durP2;ratioP2;P2;SDS_P1;SDS_P2;PMS_P1;PMS_P2;Temp;Humidity;BMP_temperature;BMP_pressure;BME280_temperature;BME280_humidity;BME280_pressure;Samples;Min_cycle;Max_cycle;Signal;HPM_P1;HPM_P2
2023/09/29 00:02:20;;;;;;;6.40;3.58;;;;;;;16.36;100.00;97577.09;4978648;28;20406;-82
2023/09/29 00:04:46;;;;;;;6.82;3.70;;;;;;;16.34;100.00;97576.59;4997163;28;20413;-83
2023/09/29 00:07:12;;;;;;;5.78;3.35;;;;;;;16.31;100.00;97577.16;4998097;28;20411;-83
2023/09/29 00:09:38;;;;;;;5.47;3.42;;;;;;;16.30;100.00;97569.44;4996908;28;20469;-82
2023/09/29 00:12:06;;;;;;;5.13;3.20;;;;;;;16.26;100.00;97567.31;4994715;28;20442;-81
2023/09/29 00:14:32;;;;;;;4.87;3.23;;;;;;;16.24;100.00;97571.34;4994267;28;20398;-83
2023/09/29 00:16:58;;;;;;;6.15;3.63;;;;;;;16.20;100.00;97575.66;4997559;28;20405;-82
2023/09/29 00:19:24;;;;;;;8.38;3.40;;;;;;;16.14;100.00;97572.25;4997962;28;20866;-82
2023/09/29 00:21:50;;;;;;;6.18;3.55;;;;;;;16.10;100.00;97575.75;4998237;28;20477;-83
2023/09/29 00:24:16;;;;;;;5.95;3.40;;;;;;;16.02;100.00;97571.81;4998282;28;20426;-82
2023/09/29 00:26:43;;;;;;;5.25;3.08;;;;;;;15.95;100.00;97570.53;4999881;28;20402;-82
2023/09/29 00:29:10;;;;;;;4.32;2.97;;;;;;;15.87;100.00;97571.94;5005538;28;20409;-81
2023/09/29 00:31:36;;;;;;;4.18;2.85;;;;;;;15.80;100.00;97568.81;5004655;28;20434;-84
2023/09/29 00:34:02;;;;;;;4.63;2.75;;;;;;;15.72;100.00;97582.75;5000100;28;20663;-82
2023/09/29 00:36:28;;;;;;;6.10;3.10;;;;;;;15.66;100.00;97578.53;4997868;28;20390;-82
2023/09/29 00:38:54;;;;;;;6.53;3.47;;;;;;;15.62;100.00;97572.16;4998651;28;20406;-82
2023/09/29 00:41:22;;;;;;;8.50;3.85;;;;;;;15.57;100.00;97572.19;4998210;28;20907;-82
2023/09/29 00:43:48;;;;;;;5.97;3.63;;;;;;;15.54;100.00;97570.09;4992912;28;20434;-83
2023/09/29 00:46:17;;;;;;;6.20;3.20;;;;;;;15.51;100.00;97571.41;4979754;28;20498;-82
2023/09/29 00:48:43;;;;;;;7.83;3.70;;;;;;;15.54;100.00;97580.75;4979500;28;20404;-82
2023/09/29 00:51:10;;;;;;;7.57;3.47;;;;;;;15.55;100.00;97571.69;4978910;28;20427;-83
2023/09/29 00:53:38;;;;;;;5.82;3.25;;;;;;;15.57;100.00;97574.84;4962288;28;20436;-81
2023/09/29 00:56:06;;;;;;;5.70;3.10;;;;;;;15.58;100.00;97571.91;4979842;28;20415;-82
2023/09/29 00:58:32;;;;;;;7.38;3.40;;;;;;;15.59;100.00;97573.50;4978593;28;20898;-82
2023/09/29 01:01:00;;;;;;;6.35;3.47;;;;;;;15.55;100.00;97569.81;4978342;28;20543;-81
2023/09/29 01:03:28;;;;;;;5.88;2.95;;;;;;;15.52;100.00;97570.34;4977775;28;20480;-82
2023/09/29 01:05:54;;;;;;;7.30;3.05;;;;;;;15.48;100.00;97575.44;4978453;28;20483;-81
2023/09/29 01:08:23;;;;;;;5.22;3.05;;;;;;;15.41;100.00;97572.25;4978113;28;20407;-82
2023/09/29 01:10:50;;;;;;;4.85;2.72;;;;;;;15.35;100.00;97570.72;4977794;28;20420;-82
2023/09/29 01:13:16;;;;;;;6.10;2.90;;;;;;;15.30;100.00;97569.94;4977610;28;20400;-81
2023/09/29 01:15:42;;;;;;;10.40;3.70;;;;;;;15.28;100.00;97569.41;4977619;28;20404;-82
2023/09/29 01:18:09;;;;;;;7.10;3.70;;;;;;;15.30;100.00;97575.28;4977266;28;20788;-82
2023/09/29 01:20:37;;;;;;;8.10;3.92;;;;;;;15.31;100.00;97575.00;4977590;28;20404;-82
2023/09/29 01:23:05;;;;;;;8.50;3.75;;;;;;;15.38;100.00;97564.84;4979741;28;20447;-82
2023/09/29 01:25:33;;;;;;;9.85;4.22;;;;;;;15.49;100.00;97568.22;4977364;28;20503;-83
2023/09/29 01:28:01;;;;;;;6.72;3.70;;;;;;;15.57;100.00;97572.19;4978295;28;20419;-83
2023/09/29 01:30:27;;;;;;;7.10;4.00;;;;;;;15.62;100.00;97569.50;4978568;28;20478;-81
2023/09/29 01:32:59;;;;;;;9.60;4.18;;;;;;;15.71;100.00;97565.16;4977733;28;20431;-83
2023/09/29 01:35:27;;;;;;;8.75;4.22;;;;;;;15.77;100.00;97562.16;4980720;28;20495;-82
2023/09/29 01:37:54;;;;;;;7.13;3.75;;;;;;;15.80;100.00;97564.25;4980340;28;20408;-83
2023/09/29 01:40:21;;;;;;;8.02;4.15;;;;;;;15.85;100.00;97564.25;4981814;28;20891;-82
2023/09/29 01:42:49;;;;;;;7.90;3.63;;;;;;;15.88;100.00;97565.53;4990244;28;20456;-82
2023/09/29 01:45:16;;;;;;;8.77;4.28;;;;;;;15.92;100.00;97563.91;4996985;28;20903;-83
2023/09/29 01:47:45;;;;;;;7.47;4.10;;;;;;;15.93;100.00;97559.38;4996844;28;20445;-83
2023/09/29 01:50:11;;;;;;;7.50;3.75;;;;;;;15.94;100.00;97558.31;4996610;28;20517;-83
2023/09/29 01:52:38;;;;;;;7.22;3.83;;;;;;;15.93;100.00;97557.50;4996512;28;20566;-82
2023/09/29 01:55:16;;;;;;;8.95;4.18;;;;;;;15.92;100.00;97552.44;4996565;28;20645;-81
2023/09/29 01:57:42;;;;;;;7.10;3.85;;;;;;;15.89;100.00;97551.13;4979674;28;20510;-82
2023/09/29 02:00:14;;;;;;;8.27;4.32;;;;;;;15.88;100.00;97557.53;4997252;28;20407;-81
2023/09/29 02:02:41;;;;;;;6.57;3.75;;;;;;;15.84;100.00;97556.50;4982431;28;20412;-83
2023/09/29 02:05:10;;;;;;;8.45;4.00;;;;;;;15.79;100.00;97554.66;4979284;28;20420;-83
2023/09/29 02:07:36;;;;;;;6.15;3.80;;;;;;;15.76;100.00;97554.44;4961643;28;20781;-82
2023/09/29 02:10:03;;;;;;;7.07;3.88;;;;;;;15.74;100.00;97546.72;4978514;28;20426;-82
2023/09/29 02:12:31;;;;;;;5.97;3.63;;;;;;;15.72;100.00;97551.53;4979043;28;20508;-82
2023/09/29 02:14:57;;;;;;;7.18;3.97;;;;;;;15.72;100.00;97546.19;4961886;28;20444;-83
2023/09/29 02:17:25;;;;;;;7.28;3.95;;;;;;;15.72;100.00;97542.72;4979497;28;20881;-83
2023/09/29 02:19:52;;;;;;;6.85;4.00;;;;;;;15.70;100.00;97545.69;4983475;28;20411;-85
2023/09/29 02:22:19;;;;;;;5.93;3.70;;;;;;;15.71;100.00;97546.47;4985300;28;20432;-82
2023/09/29 02:24:45;;;;;;;8.85;3.83;;;;;;;15.70;100.00;97544.88;4978559;28;20411;-83
2023/09/29 02:27:11;;;;;;;7.10;3.85;;;;;;;15.67;100.00;97546.22;4978661;28;20447;-83
2023/09/29 02:29:37;;;;;;;6.53;3.80;;;;;;;15.62;100.00;97548.16;4977617;28;20539;-82
2023/09/29 02:32:05;;;;;;;5.90;3.28;;;;;;;15.57;100.00;97546.31;4977846;28;20408;-82
2023/09/29 02:34:32;;;;;;;5.93;3.40;;;;;;;15.50;100.00;97546.59;4978136;28;20410;-83
2023/09/29 02:36:59;;;;;;;5.63;3.25;;;;;;;15.45;100.00;97543.19;4977544;28;20404;-82
2023/09/29 02:39:25;;;;;;;6.25;3.60;;;;;;;15.39;100.00;97534.41;4977698;28;20428;-83
2023/09/29 02:41:51;;;;;;;8.50;4.30;;;;;;;15.37;100.00;97541.09;4977776;28;20447;-83
2023/09/29 02:44:17;;;;;;;6.32;3.65;;;;;;;15.36;100.00;97537.63;4978108;28;20444;-82
2023/09/29 02:46:43;;;;;;;6.05;3.72;;;;;;;15.35;100.00;97543.22;4961160;28;20432;-83
2023/09/29 02:49:09;;;;;;;6.13;3.65;;;;;;;15.33;100.00;97542.75;4978857;28;20932;-82
2023/09/29 02:51:37;;;;;;;5.38;3.38;;;;;;;15.32;100.00;97533.13;4978624;28;20412;-82
2023/09/29 02:54:04;;;;;;;8.00;3.60;;;;;;;15.31;100.00;97552.88;4978748;28;20499;-82
2023/09/29 02:56:30;;;;;;;9.93;4.68;;;;;;;15.29;100.00;97550.47;4977882;28;20447;-82
2023/09/29 02:58:56;;;;;;;7.10;3.90;;;;;;;15.28;100.00;97550.75;4977457;28;20404;-81
2023/09/29 03:01:22;;;;;;;6.97;3.83;;;;;;;15.29;100.00;97541.69;4977464;28;20419;-83
2023/09/29 03:03:49;;;;;;;8.13;4.32;;;;;;;15.31;100.00;97548.34;4960331;28;20404;-82
2023/09/29 03:06:20;;;;;;;7.13;3.92;;;;;;;15.33;100.00;97553.41;4977543;28;20451;-81
2023/09/29 03:08:51;;;;;;;8.00;3.97;;;;;;;15.33;100.00;97546.22;4977941;28;20392;-82
2023/09/29 03:11:17;;;;;;;6.30;3.80;;;;;;;15.32;100.00;97549.94;4977384;28;20419;-82
2023/09/29 03:13:43;;;;;;;7.03;3.85;;;;;;;15.33;100.00;97542.75;4960288;28;20502;-83
2023/09/29 03:16:10;;;;;;;6.83;3.80;;;;;;;15.30;100.00;97544.06;4977566;28;20404;-82
2023/09/29 03:18:37;;;;;;;11.50;4.07;;;;;;;15.27;100.00;97539.28;4977827;28;20404;-82
2023/09/29 03:21:04;;;;;;;7.28;3.80;;;;;;;15.23;100.00;97535.59;4976590;28;20458;-82
2023/09/29 03:23:33;;;;;;;10.65;4.88;;;;;;;15.21;100.00;97527.06;4976445;28;20393;-82
2023/09/29 03:26:02;;;;;;;6.82;3.90;;;;;;;15.23;100.00;97532.94;4959295;28;20845;-81
2023/09/29 03:28:28;;;;;;;8.10;3.87;;;;;;;15.20;100.00;97533.47;4977099;28;20410;-81
2023/09/29 03:30:55;;;;;;;7.68;3.83;;;;;;;15.17;100.00;97543.91;4977484;28;20788;-83
2023/09/29 03:33:21;;;;;;;6.90;3.90;;;;;;;15.14;100.00;97537.25;4977480;28;20431;-81
2023/09/29 03:35:47;;;;;;;7.32;4.13;;;;;;;15.11;100.00;97541.25;4977124;28;20983;-82
2023/09/29 03:38:20;;;;;;;8.60;4.05;;;;;;;15.06;100.00;97538.63;4977352;28;20447;-82
2023/09/29 03:40:46;;;;;;;9.80;5.00;;;;;;;15.03;100.00;97533.88;4977433;28;20503;-82
2023/09/29 03:43:14;;;;;;;7.68;4.53;;;;;;;15.03;100.00;97535.72;4977110;28;20396;-81
2023/09/29 03:45:40;;;;;;;8.35;4.30;;;;;;;15.00;100.00;97539.72;4977491;28;20400;-83
2023/09/29 03:48:07;;;;;;;9.07;4.10;;;;;;;14.97;100.00;97537.59;4977376;28;20754;-82
2023/09/29 03:50:35;;;;;;;6.88;3.70;;;;;;;14.92;100.00;97537.63;4991547;28;20481;-82
2023/09/29 03:53:01;;;;;;;7.13;3.90;;;;;;;14.89;100.00;97534.72;4996923;28;20899;-82
2023/09/29 03:55:27;;;;;;;5.90;3.95;;;;;;;14.86;100.00;97544.06;4995355;28;20409;-82
2023/09/29 03:57:54;;;;;;;7.80;4.00;;;;;;;14.82;100.00;97542.22;4995972;28;20696;-83
2023/09/29 04:00:21;;;;;;;7.13;4.35;;;;;;;14.79;100.00;97548.09;4995456;28;20414;-81
2023/09/29 04:02:50;;;;;;;6.27;3.63;;;;;;;14.76;100.00;97556.63;4995584;28;20813;-83
2023/09/29 04:05:17;;;;;;;5.97;3.83;;;;;;;14.70;100.00;97556.66;4985338;28;20418;-81
2023/09/29 04:07:43;;;;;;;5.38;3.45;;;;;;;14.68;100.00;97558.81;4994827;28;21015;-81
2023/09/29 04:10:10;;;;;;;5.57;3.58;;;;;;;14.67;100.00;97561.72;4983343;28;20430;-82
2023/09/29 04:12:37;;;;;;;6.07;3.13;;;;;;;14.65;100.00;97562.03;4974776;28;20493;-80
2023/09/29 04:15:04;;;;;;;5.80;3.63;;;;;;;14.64;100.00;97560.44;4974563;28;20431;-82
2023/09/29 04:17:32;;;;;;;4.63;3.03;;;;;;;14.64;100.00;97555.09;4975644;28;20396;-82
2023/09/29 04:19:58;;;;;;;6.03;3.20;;;;;;;14.64;100.00;97560.44;4984624;28;20762;-83
2023/09/29 04:22:24;;;;;;;7.00;3.92;;;;;;;14.65;100.00;97567.34;4977347;28;20474;-83
2023/09/29 04:24:51;;;;;;;6.67;4.23;;;;;;;14.65;100.00;97570.03;4980141;28;20838;-80
2023/09/29 04:27:17;;;;;;;6.38;3.60;;;;;;;14.66;100.00;97568.13;4976613;28;20426;-83
2023/09/29 04:29:43;;;;;;;6.33;3.80;;;;;;;14.68;100.00;97566.78;4979038;28;20410;-80
2023/09/29 04:32:09;;;;;;;7.55;4.32;;;;;;;14.72;100.00;97577.72;4994633;28;20434;-81
2023/09/29 04:34:36;;;;;;;5.72;3.58;;;;;;;14.76;100.00;97580.63;4991153;28;20465;-81
2023/09/29 04:37:03;;;;;;;6.40;3.75;;;;;;;14.79;100.00;97583.56;4990837;28;20843;-81
2023/09/29 04:39:29;;;;;;;8.45;3.92;;;;;;;14.82;100.00;97582.19;4988991;28;20791;-82
2023/09/29 04:41:55;;;;;;;8.63;4.40;;;;;;;14.87;100.00;97583.00;4991034;28;20399;-82
2023/09/29 04:44:21;;;;;;;7.35;3.70;;;;;;;14.93;100.00;97589.09;4983168;28;20400;-81
2023/09/29 04:46:47;;;;;;;7.43;3.80;;;;;;;14.97;100.00;97590.13;4996237;28;20771;-83
2023/09/29 04:49:13;;;;;;;6.95;4.00;;;;;;;15.05;100.00;97587.69;4988416;28;20489;-81
2023/09/29 04:51:43;;;;;;;6.45;3.75;;;;;;;15.11;100.00;97586.56;4992691;28;20821;-82
2023/09/29 04:54:10;;;;;;;6.63;4.15;;;;;;;15.19;100.00;97585.22;4996837;28;20410;-82
2023/09/29 04:56:36;;;;;;;7.50;4.45;;;;;;;15.27;100.00;97576.63;5000557;28;20426;-81
2023/09/29 04:59:02;;;;;;;6.30;3.95;;;;;;;15.36;100.00;97577.63;4997917;28;20891;-80
2023/09/29 05:01:28;;;;;;;7.80;4.50;;;;;;;15.41;100.00;97574.94;4994542;28;20414;-83
2023/09/29 05:03:55;;;;;;;7.50;4.18;;;;;;;15.49;100.00;97578.88;4998964;28;20493;-81
2023/09/29 05:06:23;;;;;;;7.88;4.18;;;;;;;15.56;100.00;97574.09;4998400;28;20436;-81
2023/09/29 05:08:51;;;;;;;7.75;4.50;;;;;;;15.61;100.00;97583.91;4999221;28;20402;-82
2023/09/29 05:11:22;;;;;;;7.75;4.22;;;;;;;15.65;100.00;97577.72;4999890;28;20492;-82
2023/09/29 05:13:49;;;;;;;8.70;4.82;;;;;;;15.67;100.00;97572.13;5000768;28;20413;-82
2023/09/29 05:16:15;;;;;;;9.52;4.82;;;;;;;15.73;100.00;97577.13;4999014;28;20406;-81
2023/09/29 05:18:42;;;;;;;7.93;4.70;;;;;;;15.77;100.00;97574.72;4999694;28;20411;-78
2023/09/29 05:21:09;;;;;;;6.93;4.30;;;;;;;15.79;100.00;97575.22;5001801;28;20433;-83
2023/09/29 05:23:35;;;;;;;7.53;4.45;;;;;;;15.84;100.00;97583.19;5001239;28;20406;-82
2023/09/29 05:26:05;;;;;;;6.32;4.13;;;;;;;15.85;100.00;97576.78;5001192;28;20394;-82
2023/09/29 05:28:32;;;;;;;10.73;4.00;;;;;;;15.85;100.00;97588.28;4996888;28;20406;-80
2023/09/29 05:30:59;;;;;;;9.05;3.92;;;;;;;15.86;100.00;97589.84;4984031;28;20426;-83
2023/09/29 05:33:25;;;;;;;6.28;4.30;;;;;;;15.87;100.00;97591.44;4987041;28;20927;-82
2023/09/29 05:35:51;;;;;;;5.97;3.88;;;;;;;15.92;100.00;97589.81;4981552;28;20948;-82
2023/09/29 05:38:18;;;;;;;10.17;4.93;;;;;;;15.91;100.00;97588.22;4987528;28;20501;-82
2023/09/29 05:40:47;;;;;;;9.95;4.95;;;;;;;15.92;100.00;97582.59;4975738;28;20423;-81
2023/09/29 05:43:15;;;;;;;9.80;4.60;;;;;;;15.95;100.00;97590.03;4977084;28;20522;-82
2023/09/29 05:45:41;;;;;;;14.43;4.65;;;;;;;15.97;100.00;97590.56;4991392;28;20649;-81
2023/09/29 05:48:07;;;;;;;8.90;4.30;;;;;;;16.02;100.00;97590.50;4982691;28;20402;-79
2023/09/29 05:50:33;;;;;;;6.72;3.80;;;;;;;16.09;100.00;97588.31;4994970;28;20426;-80
2023/09/29 05:53:00;;;;;;;9.07;4.37;;;;;;;16.10;100.00;97597.91;4981570;28;20455;-83
2023/09/29 05:55:26;;;;;;;9.23;4.43;;;;;;;16.14;100.00;97601.63;4980039;28;20469;-84
2023/09/29 05:57:52;;;;;;;5.97;3.80;;;;;;;16.17;100.00;97610.94;4989781;28;20408;-83
2023/09/29 06:00:20;;;;;;;8.10;3.95;;;;;;;16.18;100.00;97607.19;4989091;28;20511;-81
2023/09/29 06:02:47;;;;;;;5.97;3.72;;;;;;;16.23;100.00;97607.97;4995376;28;20493;-80
2023/09/29 06:05:14;;;;;;;5.70;3.50;;;;;;;16.25;100.00;97603.13;4985721;28;20939;-79
2023/09/29 06:07:40;;;;;;;7.80;3.75;;;;;;;16.31;100.00;97608.44;4985324;28;20929;-80
2023/09/29 06:10:07;;;;;;;6.40;3.55;;;;;;;16.33;100.00;97606.25;4982955;28;20424;-79
2023/09/29 06:12:33;;;;;;;7.65;3.90;;;;;;;16.32;100.00;97610.00;4995964;28;20738;-81
2023/09/29 06:15:00;;;;;;;7.03;3.90;;;;;;;16.36;100.00;97609.16;4991877;28;20460;-80
2023/09/29 06:17:27;;;;;;;10.20;4.55;;;;;;;16.41;100.00;97610.97;4992418;28;20402;-77
2023/09/29 06:19:53;;;;;;;8.60;4.30;;;;;;;16.45;100.00;97604.81;4980281;28;20431;-79
2023/09/29 06:22:20;;;;;;;9.00;4.63;;;;;;;16.51;100.00;97613.56;4982911;28;20416;-80
2023/09/29 06:24:46;;;;;;;7.18;3.97;;;;;;;16.59;100.00;97618.28;4982982;28;20440;-78
2023/09/29 06:27:12;;;;;;;9.75;4.20;;;;;;;16.61;100.00;97613.50;4979440;28;20404;-77
2023/09/29 06:29:39;;;;;;;6.80;4.07;;;;;;;16.68;100.00;97616.63;4986149;28;20482;-79
2023/09/29 06:32:05;;;;;;;7.97;4.17;;;;;;;16.73;100.00;97621.09;4985400;28;20428;-78
2023/09/29 06:34:33;;;;;;;8.57;4.03;;;;;;;16.86;100.00;97615.84;4980450;28;20411;-78
2023/09/29 06:36:59;;;;;;;7.43;3.72;;;;;;;16.99;100.00;97620.50;4979112;28;20416;-79
2023/09/29 06:39:26;;;;;;;5.68;3.80;;;;;;;17.08;100.00;97626.00;4979963;28;20416;-78
2023/09/29 06:41:52;;;;;;;11.48;4.13;;;;;;;17.15;100.00;97625.66;4986257;28;20418;-80
2023/09/29 06:44:19;;;;;;;7.13;3.45;;;;;;;17.23;100.00;97625.81;4994459;28;20410;-77
2023/09/29 06:46:45;;;;;;;8.60;4.22;;;;;;;17.22;100.00;97624.22;4982028;28;20421;-77
2023/09/29 06:49:11;;;;;;;11.18;4.28;;;;;;;17.23;100.00;97628.50;4994238;28;20980;-80
2023/09/29 06:51:39;;;;;;;7.38;4.25;;;;;;;17.25;100.00;97626.34;4992646;28;20437;-80
2023/09/29 06:54:05;;;;;;;7.22;4.20;;;;;;;17.25;100.00;97622.88;4994292;28;20398;-84
2023/09/29 06:56:31;;;;;;;7.93;4.22;;;;;;;17.24;100.00;97630.09;4978373;28;20401;-84
2023/09/29 06:58:57;;;;;;;9.57;4.07;;;;;;;17.29;100.00;97631.94;4979490;28;20431;-83
2023/09/29 07:01:26;;;;;;;6.30;3.65;;;;;;;17.31;100.00;97627.84;4978471;28;20418;-84
2023/09/29 07:03:52;;;;;;;5.95;3.40;;;;;;;17.36;100.00;97633.16;4980972;28;20440;-83
2023/09/29 07:06:21;;;;;;;5.93;3.53;;;;;;;17.41;100.00;97629.59;4991380;28;20536;-83
2023/09/29 07:08:48;;;;;;;6.75;4.10;;;;;;;17.43;100.00;97632.81;4978458;28;20599;-84
2023/09/29 07:11:15;;;;;;;5.00;3.17;;;;;;;17.55;100.00;97627.00;4978192;28;20424;-83
2023/09/29 07:13:41;;;;;;;8.48;4.10;;;;;;;17.58;100.00;97629.91;4984374;28;20438;-82
2023/09/29 07:16:07;;;;;;;5.13;3.40;;;;;;;17.71;100.00;97634.56;4991790;28;20418;-82
2023/09/29 07:18:33;;;;;;;5.38;3.42;;;;;;;17.77;100.00;97627.25;4986093;28;20420;-83
2023/09/29 07:20:59;;;;;;;5.40;3.10;;;;;;;17.81;100.00;97622.91;4979125;28;20423;-82
2023/09/29 07:23:26;;;;;;;7.00;3.72;;;;;;;17.80;100.00;97626.66;4980222;28;20440;-81
2023/09/29 07:25:53;;;;;;;6.72;3.72;;;;;;;17.86;100.00;97628.19;5002258;28;20426;-81
2023/09/29 07:28:20;;;;;;;5.72;3.38;;;;;;;17.94;100.00;97624.84;4985205;28;20417;-81
2023/09/29 07:30:47;;;;;;;4.97;2.90;;;;;;;17.99;100.00;97627.41;4992824;28;20432;-81
2023/09/29 07:33:14;;;;;;;4.68;2.80;;;;;;;18.01;100.00;97627.94;4998097;28;20426;-81
2023/09/29 07:35:41;;;;;;;7.43;3.15;;;;;;;18.11;100.00;97638.50;4995835;28;20493;-81
2023/09/29 07:38:07;;;;;;;7.00;3.10;;;;;;;18.14;100.00;97637.88;4987517;28;20413;-81
2023/09/29 07:40:34;;;;;;;7.25;3.63;;;;;;;18.17;100.00;97639.19;4985404;28;20863;-81
2023/09/29 07:43:03;;;;;;;8.65;3.78;;;;;;;18.17;100.00;97631.16;4982639;28;20499;-82
2023/09/29 07:45:29;;;;;;;10.10;3.80;;;;;;;18.23;100.00;97627.31;4991600;28;20911;-79
2023/09/29 07:47:55;;;;;;;4.18;2.70;;;;;;;18.31;100.00;97629.31;4989510;28;20416;-81
2023/09/29 07:50:22;;;;;;;7.15;3.67;;;;;;;18.43;100.00;97639.53;4988676;28;20477;-81
2023/09/29 07:52:48;;;;;;;6.50;3.47;;;;;;;18.51;100.00;97638.88;4987272;28;20413;-81
2023/09/29 07:55:14;;;;;;;5.32;3.42;;;;;;;18.68;100.00;97643.69;4978313;28;20471;-80
2023/09/29 07:57:40;;;;;;;9.03;3.47;;;;;;;18.78;100.00;97646.97;4983444;28;20399;-81
2023/09/29 08:00:10;;;;;;;6.50;3.60;;;;;;;18.93;100.00;97641.31;4995920;28;20427;-79
2023/09/29 08:02:36;;;;;;;9.23;4.15;;;;;;;18.97;100.00;97643.41;4984366;28;20491;-82
2023/09/29 08:05:03;;;;;;;6.00;3.60;;;;;;;19.06;100.00;97639.72;4991124;28;20414;-82
2023/09/29 08:07:30;;;;;;;8.90;3.53;;;;;;;19.17;100.00;97646.47;4990262;28;20479;-80
2023/09/29 08:09:56;;;;;;;6.53;3.90;;;;;;;19.37;100.00;97649.81;4986963;28;20541;-82
2023/09/29 08:12:22;;;;;;;8.70;4.28;;;;;;;19.42;100.00;97649.72;4986444;28;20412;-81
2023/09/29 08:14:50;;;;;;;6.68;3.63;;;;;;;19.55;100.00;97647.03;4975912;28;20808;-81
2023/09/29 08:17:21;;;;;;;8.07;3.38;;;;;;;19.56;100.00;97653.19;4977125;28;20412;-81
2023/09/29 08:19:48;;;;;;;4.80;3.13;;;;;;;19.85;100.00;97648.22;4985149;28;20399;-80
2023/09/29 08:22:14;;;;;;;5.65;3.33;;;;;;;20.24;100.00;97642.19;4976111;28;20463;-81
2023/09/29 08:24:40;;;;;;;6.28;3.17;;;;;;;20.78;100.00;97642.97;4976400;28;20465;-82
2023/09/29 08:27:06;;;;;;;8.43;3.47;;;;;;;21.09;100.00;97645.59;4981795;28;20445;-81
2023/09/29 08:29:33;;;;;;;5.97;2.90;;;;;;;21.09;100.00;97653.69;4980792;28;20458;-82
2023/09/29 08:32:00;;;;;;;6.53;3.53;;;;;;;20.79;100.00;97645.34;4959745;28;20434;-81
2023/09/29 08:34:30;;;;;;;8.68;3.63;;;;;;;20.46;100.00;97652.13;4979276;28;20412;-82
2023/09/29 08:36:56;;;;;;;9.02;3.40;;;;;;;20.19;100.00;97636.13;4982110;28;20423;-82
2023/09/29 08:39:23;;;;;;;9.07;3.70;;;;;;;19.99;100.00;97637.44;4986546;28;20744;-81
2023/09/29 08:42:00;;;;;;;8.40;3.85;;;;;;;20.09;100.00;97637.97;4980457;28;20443;-81
2023/09/29 08:44:27;;;;;;;5.05;3.03;;;;;;;20.54;100.00;97637.94;4985882;28;20410;-80
2023/09/29 08:46:58;;;;;;;11.65;3.22;;;;;;;20.97;100.00;97631.97;4996186;28;20395;-81
2023/09/29 08:49:24;;;;;;;6.85;3.53;;;;;;;21.26;100.00;97639.50;4986964;28;20777;-81
2023/09/29 08:51:54;;;;;;;4.43;2.78;;;;;;;21.80;100.00;97636.22;4986731;28;20471;-81
2023/09/29 08:54:22;;;;;;;8.87;3.83;;;;;;;21.95;100.00;97638.44;4990749;28;20412;-81
2023/09/29 08:56:49;;;;;;;5.40;3.20;;;;;;;22.26;100.00;97642.88;4987718;28;20404;-81
2023/09/29 08:59:16;;;;;;;5.18;2.83;;;;;;;22.49;100.00;97640.75;4979973;28;20750;-81
2023/09/29 09:01:42;;;;;;;4.18;2.67;;;;;;;22.73;100.00;97639.13;4987372;28;20422;-81
2023/09/29 09:04:08;;;;;;;5.23;3.10;;;;;;;22.98;100.00;97631.25;4981808;28;20404;-81
2023/09/29 09:06:34;;;;;;;7.80;3.00;;;;;;;23.01;100.00;97636.78;4981051;28;20400;-80
2023/09/29 09:09:02;;;;;;;7.85;3.08;;;;;;;23.13;100.00;97634.19;4980146;28;20883;-80
2023/09/29 09:11:28;;;;;;;8.07;3.30;;;;;;;23.05;100.00;97626.13;4980809;28;20431;-81
2023/09/29 09:13:59;;;;;;;5.57;2.72;;;;;;;23.34;100.00;97626.09;4983243;28;20730;-80
2023/09/29 09:16:25;;;;;;;5.20;2.45;;;;;;;23.56;100.00;97621.53;4986272;28;20416;-80
2023/09/29 09:18:51;;;;;;;12.35;3.17;;;;;;;23.62;100.00;97623.72;4988662;28;20410;-81
2023/09/29 09:21:17;;;;;;;4.55;2.63;;;;;;;23.81;100.00;97623.25;4981201;28;20427;-80
2023/09/29 09:23:44;;;;;;;3.33;2.30;;;;;;;24.02;100.00;97621.31;4987145;28;20399;-81
2023/09/29 09:26:17;;;;;;;3.78;2.25;;;;;;;24.21;100.00;97620.81;4979889;28;20498;-80
2023/09/29 09:28:43;;;;;;;7.32;2.83;;;;;;;23.93;100.00;97629.50;4980057;28;20404;-81
2023/09/29 09:31:11;;;;;;;4.90;2.83;;;;;;;23.74;100.00;97621.09;4979554;28;20895;-81
2023/09/29 09:33:37;;;;;;;5.43;2.58;;;;;;;23.51;100.00;97619.84;4979981;28;20416;-81
2023/09/29 09:36:09;;;;;;;7.72;2.95;;;;;;;23.38;100.00;97634.38;4978313;28;20416;-80
2023/09/29 09:38:37;;;;;;;3.42;2.33;;;;;;;23.33;100.00;97643.44;4980146;28;20408;-81
2023/09/29 09:41:03;;;;;;;6.53;3.30;;;;;;;23.37;100.00;97638.19;4982048;28;20410;-80
2023/09/29 09:43:35;;;;;;;5.05;2.70;;;;;;;23.34;100.00;97628.81;4997587;28;20403;-80
2023/09/29 09:46:12;;;;;;;5.40;2.35;;;;;;;23.12;100.00;97638.00;4979128;28;20432;-80
2023/09/29 09:48:49;;;;;;;6.88;2.88;;;;;;;22.88;100.00;97637.78;4983812;28;20461;-80
2023/09/29 09:51:27;;;;;;;4.40;2.80;;;;;;;22.83;100.00;97631.78;4985767;28;20525;-79
2023/09/29 09:53:54;;;;;;;4.45;2.53;;;;;;;22.95;100.00;97631.88;4985129;28;20408;-81
2023/09/29 09:56:26;;;;;;;5.20;2.50;;;;;;;22.91;100.00;97625.56;4980274;28;20432;-81
2023/09/29 09:58:53;;;;;;;3.45;2.30;;;;;;;22.93;100.00;97634.91;4982229;28;20407;-78
2023/09/29 10:01:20;;;;;;;3.43;2.43;;;;;;;23.04;100.00;97630.72;4981495;28;20451;-80
2023/09/29 10:03:47;;;;;;;5.75;2.88;;;;;;;23.16;100.00;97635.41;4987189;28;20410;-79
2023/09/29 10:06:13;;;;;;;4.03;2.47;;;;;;;23.32;100.00;97632.94;4986434;28;20406;-80
2023/09/29 10:08:41;;;;;;;6.00;3.03;;;;;;;23.35;100.00;97629.59;4989379;28;20461;-80
2023/09/29 10:11:10;;;;;;;6.00;2.50;;;;;;;23.25;100.00;97627.28;4981028;28;20472;-81
2023/09/29 10:13:37;;;;;;;4.75;2.72;;;;;;;23.10;100.00;97634.81;4989779;28;20443;-81
2023/09/29 10:16:05;;;;;;;5.35;2.90;;;;;;;23.02;100.00;97632.97;4986652;28;20418;-80
2023/09/29 10:18:33;;;;;;;4.20;2.30;;;;;;;22.96;100.00;97633.47;4980444;28;20430;-79
2023/09/29 10:21:06;;;;;;;7.93;2.70;;;;;;;22.87;100.00;97636.22;4980972;28;20942;-80
2023/09/29 10:23:44;;;;;;;3.53;2.40;;;;;;;22.90;100.00;97637.47;4976730;28;20404;-78
2023/09/29 10:26:10;;;;;;;3.70;2.20;;;;;;;23.12;100.00;97639.91;4986564;28;20801;-84
2023/09/29 10:28:39;;;;;;;3.80;2.45;;;;;;;23.30;100.00;97635.22;4979915;28;20710;-84
2023/09/29 10:31:13;;;;;;;5.20;2.53;;;;;;;23.47;100.00;97625.06;4992130;28;20454;-80
2023/09/29 10:33:51;;;;;;;3.20;2.22;;;;;;;23.78;100.00;97627.41;4992804;28;20430;-78
2023/09/29 10:36:18;;;;;;;4.27;2.60;;;;;;;24.24;100.00;97622.88;4990845;28;20445;-80
2023/09/29 10:38:44;;;;;;;5.22;2.45;;;;;;;24.66;100.00;97624.31;4987227;28;20451;-80
2023/09/29 10:41:12;;;;;;;4.30;2.85;;;;;;;24.93;100.00;97617.50;4994563;28;20433;-80
2023/09/29 10:43:41;;;;;;;4.53;2.80;;;;;;;24.95;100.00;97617.16;4995412;28;20910;-79
2023/09/29 10:46:09;;;;;;;3.72;2.50;;;;;;;25.06;100.00;97615.56;4989224;28;20422;-81
2023/09/29 10:48:44;;;;;;;6.63;2.83;;;;;;;24.96;100.00;97611.38;4991634;28;20408;-80
2023/09/29 10:51:10;;;;;;;7.63;3.08;;;;;;;25.03;100.00;97618.97;4979254;28;20786;-80
2023/09/29 10:53:37;;;;;;;4.95;2.45;;;;;;;25.38;100.00;97619.25;4991799;28;20491;-80
2023/09/29 10:56:03;;;;;;;5.55;2.60;;;;;;;25.43;100.00;97608.97;4985899;28;20447;-80
2023/09/29 10:58:37;;;;;;;9.17;3.00;;;;;;;25.11;100.00;97609.91;4980841;28;20440;-81
2023/09/29 11:01:04;;;;;;;6.95;3.25;;;;;;;25.05;100.00;97603.16;4987902;28;20451;-82
2023/09/29 11:03:32;;;;;;;4.38;2.70;;;;;;;25.25;100.00;97615.00;4993961;28;20440;-87
2023/09/29 11:08:34;;;;;;;5.05;2.67;;;;;;;25.66;100.00;97609.28;4994419;28;20439;-85
2023/09/29 11:11:02;;;;;;;10.10;3.40;;;;;;;25.52;100.00;97613.47;4993304;28;20416;-88
2023/09/29 11:13:29;;;;;;;7.65;2.97;;;;;;;25.56;100.00;97600.81;4993851;28;20436;-88
2023/09/29 11:15:58;;;;;;;7.22;2.95;;;;;;;25.66;100.00;97595.72;5199740;23;20444;-86
2023/09/29 11:18:34;;;;;;;5.97;2.87;;;;;;;25.69;100.00;97592.34;5033191;28;20416;-86
2023/09/29 11:21:11;;;;;;;6.25;3.00;;;;;;;25.68;100.00;97590.75;5031350;28;20407;-86
2023/09/29 11:23:43;;;;;;;6.93;3.15;;;;;;;25.90;100.00;97588.63;5025915;28;20405;-85
2023/09/29 11:26:11;;;;;;;5.38;2.90;;;;;;;25.98;100.00;97585.78;5029036;28;20409;-87
2023/09/29 11:28:41;;;;;;;7.03;3.08;;;;;;;25.94;99.63;97587.59;5016412;28;21707;-87